sensor_id;sensor_type;location;lat;lon;timestamp;temperature;humidity
70928;SHT31;58587;53.034;18.576;2023-07-28T00:00:05;17.87;66.90
70928;SHT31;58587;53.034;18.576;2023-07-28T00:02:30;17.92;66.83
70928;SHT31;58587;53.034;18.576;2023-07-28T00:04:56;17.90;67.03
70928;SHT31;58587;53.034;18.576;2023-07-28T00:07:21;17.93;66.83
70928;SHT31;58587;53.034;18.576;2023-07-28T00:09:47;17.92;67.30
70928;SHT31;58587;53.034;18.576;2023-07-28T00:12:12;17.92;66.81
70928;SHT31;58587;53.034;18.576;2023-07-28T00:14:37;17.90;65.83
70928;SHT31;58587;53.034;18.576;2023-07-28T00:17:03;17.90;64.95
70928;SHT31;58587;53.034;18.576;2023-07-28T00:19:28;17.93;64.55
70928;SHT31;58587;53.034;18.576;2023-07-28T00:21:53;17.90;64.06
70928;SHT31;58587;53.034;18.576;2023-07-28T00:24:21;17.93;63.75
70928;SHT31;58587;53.034;18.576;2023-07-28T00:26:46;17.92;64.39
70928;SHT31;58587;53.034;18.576;2023-07-28T00:29:12;17.87;63.54
70928;SHT31;58587;53.034;18.576;2023-07-28T00:31:37;17.89;63.47
70928;SHT31;58587;53.034;18.576;2023-07-28T00:34:03;17.92;63.14
70928;SHT31;58587;53.034;18.576;2023-07-28T00:36:29;17.90;63.16
70928;SHT31;58587;53.034;18.576;2023-07-28T00:38:54;17.90;63.09
70928;SHT31;58587;53.034;18.576;2023-07-28T00:41:19;17.92;62.92
70928;SHT31;58587;53.034;18.576;2023-07-28T00:43:45;17.89;63.06
70928;SHT31;58587;53.034;18.576;2023-07-28T00:46:10;17.85;62.55
70928;SHT31;58587;53.034;18.576;2023-07-28T00:48:36;17.87;62.97
70928;SHT31;58587;53.034;18.576;2023-07-28T00:51:02;17.89;62.99
70928;SHT31;58587;53.034;18.576;2023-07-28T00:53:28;17.87;62.86
70928;SHT31;58587;53.034;18.576;2023-07-28T00:55:54;17.86;62.68
70928;SHT31;58587;53.034;18.576;2023-07-28T00:58:20;17.87;63.23
70928;SHT31;58587;53.034;18.576;2023-07-28T01:00:45;17.87;62.75
70928;SHT31;58587;53.034;18.576;2023-07-28T01:03:12;17.87;63.09
70928;SHT31;58587;53.034;18.576;2023-07-28T01:05:44;17.92;62.88
70928;SHT31;58587;53.034;18.576;2023-07-28T01:08:30;17.89;63.04
70928;SHT31;58587;53.034;18.576;2023-07-28T01:10:58;17.89;62.83
70928;SHT31;58587;53.034;18.576;2023-07-28T01:13:23;17.86;63.17
70928;SHT31;58587;53.034;18.576;2023-07-28T01:15:48;17.87;63.06
70928;SHT31;58587;53.034;18.576;2023-07-28T01:18:14;17.85;63.20
70928;SHT31;58587;53.034;18.576;2023-07-28T01:20:40;17.82;63.44
70928;SHT31;58587;53.034;18.576;2023-07-28T01:25:47;17.81;63.95
70928;SHT31;58587;53.034;18.576;2023-07-28T01:28:15;17.81;64.12
70928;SHT31;58587;53.034;18.576;2023-07-28T01:30:42;17.79;64.50
70928;SHT31;58587;53.034;18.576;2023-07-28T01:33:07;17.75;64.32
70928;SHT31;58587;53.034;18.576;2023-07-28T01:35:35;17.78;64.51
70928;SHT31;58587;53.034;18.576;2023-07-28T01:38:00;17.75;64.96
70928;SHT31;58587;53.034;18.576;2023-07-28T01:40:26;17.74;65.29
70928;SHT31;58587;53.034;18.576;2023-07-28T01:42:51;17.72;65.15
70928;SHT31;58587;53.034;18.576;2023-07-28T01:45:16;17.66;65.21
70928;SHT31;58587;53.034;18.576;2023-07-28T01:47:42;17.68;65.61
70928;SHT31;58587;53.034;18.576;2023-07-28T01:50:07;17.68;65.55
70928;SHT31;58587;53.034;18.576;2023-07-28T01:52:32;17.68;65.60
70928;SHT31;58587;53.034;18.576;2023-07-28T01:54:58;17.64;66.72
70928;SHT31;58587;53.034;18.576;2023-07-28T01:57:23;17.58;68.68
70928;SHT31;58587;53.034;18.576;2023-07-28T01:59:52;17.51;71.27
70928;SHT31;58587;53.034;18.576;2023-07-28T02:02:18;17.46;72.01
70928;SHT31;58587;53.034;18.576;2023-07-28T02:04:43;17.38;72.12
70928;SHT31;58587;53.034;18.576;2023-07-28T02:07:08;17.30;72.19
70928;SHT31;58587;53.034;18.576;2023-07-28T02:09:33;17.35;73.17
70928;SHT31;58587;53.034;18.576;2023-07-28T02:11:59;17.31;74.24
70928;SHT31;58587;53.034;18.576;2023-07-28T02:14:24;17.27;74.47
70928;SHT31;58587;53.034;18.576;2023-07-28T02:16:49;17.24;74.50
70928;SHT31;58587;53.034;18.576;2023-07-28T02:19:15;17.25;74.38
70928;SHT31;58587;53.034;18.576;2023-07-28T02:21:40;17.15;74.45
70928;SHT31;58587;53.034;18.576;2023-07-28T02:24:05;17.18;75.56
70928;SHT31;58587;53.034;18.576;2023-07-28T02:26:31;17.08;74.61
70928;SHT31;58587;53.034;18.576;2023-07-28T02:28:56;17.07;75.00
70928;SHT31;58587;53.034;18.576;2023-07-28T02:31:21;17.08;75.78
70928;SHT31;58587;53.034;18.576;2023-07-28T02:33:46;17.07;75.18
70928;SHT31;58587;53.034;18.576;2023-07-28T02:36:12;17.07;75.35
70928;SHT31;58587;53.034;18.576;2023-07-28T02:38:37;17.07;75.82
70928;SHT31;58587;53.034;18.576;2023-07-28T02:41:02;17.04;75.48
70928;SHT31;58587;53.034;18.576;2023-07-28T02:43:29;17.01;76.09
70928;SHT31;58587;53.034;18.576;2023-07-28T02:45:55;17.03;75.95
70928;SHT31;58587;53.034;18.576;2023-07-28T02:48:21;17.03;75.65
70928;SHT31;58587;53.034;18.576;2023-07-28T02:50:49;17.01;76.18
70928;SHT31;58587;53.034;18.576;2023-07-28T02:53:14;17.03;76.16
70928;SHT31;58587;53.034;18.576;2023-07-28T02:55:46;17.04;76.69
70928;SHT31;58587;53.034;18.576;2023-07-28T02:58:13;17.03;76.62
70928;SHT31;58587;53.034;18.576;2023-07-28T03:00:42;17.03;76.40
70928;SHT31;58587;53.034;18.576;2023-07-28T03:03:08;17.01;76.25
70928;SHT31;58587;53.034;18.576;2023-07-28T03:05:37;17.07;76.57
70928;SHT31;58587;53.034;18.576;2023-07-28T03:08:04;17.04;76.28
70928;SHT31;58587;53.034;18.576;2023-07-28T03:10:29;17.06;75.79
70928;SHT31;58587;53.034;18.576;2023-07-28T03:12:55;17.00;75.17
70928;SHT31;58587;53.034;18.576;2023-07-28T03:15:21;17.00;75.62
70928;SHT31;58587;53.034;18.576;2023-07-28T03:17:51;17.04;76.26
70928;SHT31;58587;53.034;18.576;2023-07-28T03:20:19;17.04;75.79
70928;SHT31;58587;53.034;18.576;2023-07-28T03:22:44;17.06;75.64
70928;SHT31;58587;53.034;18.576;2023-07-28T03:25:11;17.06;76.10
70928;SHT31;58587;53.034;18.576;2023-07-28T03:27:36;17.03;75.82
70928;SHT31;58587;53.034;18.576;2023-07-28T03:30:01;17.03;77.44
70928;SHT31;58587;53.034;18.576;2023-07-28T03:32:27;17.03;79.44
70928;SHT31;58587;53.034;18.576;2023-07-28T03:34:52;17.06;79.96
70928;SHT31;58587;53.034;18.576;2023-07-28T03:37:18;17.06;80.14
70928;SHT31;58587;53.034;18.576;2023-07-28T03:39:43;17.06;81.38
70928;SHT31;58587;53.034;18.576;2023-07-28T03:42:08;17.08;81.17
70928;SHT31;58587;53.034;18.576;2023-07-28T03:44:34;17.08;81.03
70928;SHT31;58587;53.034;18.576;2023-07-28T03:47:00;17.08;80.94
70928;SHT31;58587;53.034;18.576;2023-07-28T03:49:25;17.10;81.24
70928;SHT31;58587;53.034;18.576;2023-07-28T03:51:50;17.10;81.62
70928;SHT31;58587;53.034;18.576;2023-07-28T03:54:16;17.10;81.44
70928;SHT31;58587;53.034;18.576;2023-07-28T03:56:41;17.08;81.55
70928;SHT31;58587;53.034;18.576;2023-07-28T03:59:06;17.15;80.56
70928;SHT31;58587;53.034;18.576;2023-07-28T04:01:31;17.15;81.77
70928;SHT31;58587;53.034;18.576;2023-07-28T04:03:57;17.11;80.18
70928;SHT31;58587;53.034;18.576;2023-07-28T04:06:48;17.11;80.77
70928;SHT31;58587;53.034;18.576;2023-07-28T04:09:18;17.07;79.61
70928;SHT31;58587;53.034;18.576;2023-07-28T04:11:44;17.10;79.65
70928;SHT31;58587;53.034;18.576;2023-07-28T04:14:09;17.06;79.40
70928;SHT31;58587;53.034;18.576;2023-07-28T04:16:35;17.06;78.90
70928;SHT31;58587;53.034;18.576;2023-07-28T04:19:00;17.08;79.48
70928;SHT31;58587;53.034;18.576;2023-07-28T04:21:26;17.08;78.95
70928;SHT31;58587;53.034;18.576;2023-07-28T04:23:51;16.94;78.26
70928;SHT31;58587;53.034;18.576;2023-07-28T04:26:17;16.93;78.41
70928;SHT31;58587;53.034;18.576;2023-07-28T04:28:43;16.93;78.49
70928;SHT31;58587;53.034;18.576;2023-07-28T04:31:08;16.97;78.42
70928;SHT31;58587;53.034;18.576;2023-07-28T04:33:33;16.99;78.76
70928;SHT31;58587;53.034;18.576;2023-07-28T04:35:59;16.95;78.84
70928;SHT31;58587;53.034;18.576;2023-07-28T04:38:24;16.97;78.62
70928;SHT31;58587;53.034;18.576;2023-07-28T04:40:50;16.97;78.59
70928;SHT31;58587;53.034;18.576;2023-07-28T04:43:15;16.99;80.03
70928;SHT31;58587;53.034;18.576;2023-07-28T04:45:40;17.00;79.57
70928;SHT31;58587;53.034;18.576;2023-07-28T04:48:06;16.99;80.10
70928;SHT31;58587;53.034;18.576;2023-07-28T04:50:31;16.97;79.43
70928;SHT31;58587;53.034;18.576;2023-07-28T04:52:59;16.99;79.94
70928;SHT31;58587;53.034;18.576;2023-07-28T04:55:24;17.01;80.72
70928;SHT31;58587;53.034;18.576;2023-07-28T04:57:49;16.95;80.53
70928;SHT31;58587;53.034;18.576;2023-07-28T05:00:15;16.99;80.40
70928;SHT31;58587;53.034;18.576;2023-07-28T05:02:40;17.01;81.32
70928;SHT31;58587;53.034;18.576;2023-07-28T05:05:06;16.97;81.31
70928;SHT31;58587;53.034;18.576;2023-07-28T05:07:31;16.99;82.27
70928;SHT31;58587;53.034;18.576;2023-07-28T05:09:56;16.99;82.05
70928;SHT31;58587;53.034;18.576;2023-07-28T05:12:22;17.03;82.24
70928;SHT31;58587;53.034;18.576;2023-07-28T05:14:47;17.04;82.83
70928;SHT31;58587;53.034;18.576;2023-07-28T05:17:12;16.99;82.68
70928;SHT31;58587;53.034;18.576;2023-07-28T05:19:38;17.01;83.21
70928;SHT31;58587;53.034;18.576;2023-07-28T05:22:03;17.08;82.74
70928;SHT31;58587;53.034;18.576;2023-07-28T05:24:31;17.06;83.93
70928;SHT31;58587;53.034;18.576;2023-07-28T05:26:56;17.08;84.16
70928;SHT31;58587;53.034;18.576;2023-07-28T05:29:22;17.04;83.58
70928;SHT31;58587;53.034;18.576;2023-07-28T05:31:47;16.93;83.74
70928;SHT31;58587;53.034;18.576;2023-07-28T05:34:12;17.00;84.35
70928;SHT31;58587;53.034;18.576;2023-07-28T05:36:38;17.00;84.75
70928;SHT31;58587;53.034;18.576;2023-07-28T05:39:03;17.01;84.32
70928;SHT31;58587;53.034;18.576;2023-07-28T05:41:29;16.97;85.22
70928;SHT31;58587;53.034;18.576;2023-07-28T05:43:54;16.97;85.59
70928;SHT31;58587;53.034;18.576;2023-07-28T05:46:19;16.91;85.02
70928;SHT31;58587;53.034;18.576;2023-07-28T05:48:45;16.90;85.27
70928;SHT31;58587;53.034;18.576;2023-07-28T05:51:10;16.83;86.34
70928;SHT31;58587;53.034;18.576;2023-07-28T05:53:35;16.93;86.36
70928;SHT31;58587;53.034;18.576;2023-07-28T05:56:01;16.93;86.07
70928;SHT31;58587;53.034;18.576;2023-07-28T05:58:26;16.91;86.13
70928;SHT31;58587;53.034;18.576;2023-07-28T06:00:51;16.97;86.14
70928;SHT31;58587;53.034;18.576;2023-07-28T06:03:17;16.90;85.65
70928;SHT31;58587;53.034;18.576;2023-07-28T06:05:42;16.97;86.55
70928;SHT31;58587;53.034;18.576;2023-07-28T06:08:08;17.03;85.76
70928;SHT31;58587;53.034;18.576;2023-07-28T06:10:34;17.11;85.73
70928;SHT31;58587;53.034;18.576;2023-07-28T06:12:59;17.15;85.53
70928;SHT31;58587;53.034;18.576;2023-07-28T06:15:25;17.11;85.45
70928;SHT31;58587;53.034;18.576;2023-07-28T06:17:50;17.12;85.72
70928;SHT31;58587;53.034;18.576;2023-07-28T06:20:15;17.03;85.74
70928;SHT31;58587;53.034;18.576;2023-07-28T06:22:41;17.10;85.89
70928;SHT31;58587;53.034;18.576;2023-07-28T06:25:06;17.03;85.54
70928;SHT31;58587;53.034;18.576;2023-07-28T06:27:32;17.03;85.68
70928;SHT31;58587;53.034;18.576;2023-07-28T06:29:57;17.00;85.87
70928;SHT31;58587;53.034;18.576;2023-07-28T06:32:23;17.01;86.28
70928;SHT31;58587;53.034;18.576;2023-07-28T06:34:53;16.99;86.21
70928;SHT31;58587;53.034;18.576;2023-07-28T06:37:18;17.00;86.13
70928;SHT31;58587;53.034;18.576;2023-07-28T06:39:43;16.91;86.63
70928;SHT31;58587;53.034;18.576;2023-07-28T09:44:12;18.84;89.43
70928;SHT31;58587;53.034;18.576;2023-07-28T09:46:51;18.91;89.11
70928;SHT31;58587;53.034;18.576;2023-07-28T09:49:22;18.87;88.47
70928;SHT31;58587;53.034;18.576;2023-07-28T09:51:53;18.97;88.86
70928;SHT31;58587;53.034;18.576;2023-07-28T09:54:27;19.00;88.55
70928;SHT31;58587;53.034;18.576;2023-07-28T09:56:56;19.08;89.21
70928;SHT31;58587;53.034;18.576;2023-07-28T09:59:27;19.14;88.58
70928;SHT31;58587;53.034;18.576;2023-07-28T10:01:53;19.19;88.69
70928;SHT31;58587;53.034;18.576;2023-07-28T10:04:18;19.22;88.32
70928;SHT31;58587;53.034;18.576;2023-07-28T10:06:44;19.19;88.17
70928;SHT31;58587;53.034;18.576;2023-07-28T10:09:10;19.19;88.71
70928;SHT31;58587;53.034;18.576;2023-07-28T10:11:37;19.21;88.72
70928;SHT31;58587;53.034;18.576;2023-07-28T10:14:02;19.15;88.74
70928;SHT31;58587;53.034;18.576;2023-07-28T10:16:37;19.19;88.94
70928;SHT31;58587;53.034;18.576;2023-07-28T10:19:03;19.31;88.82
70928;SHT31;58587;53.034;18.576;2023-07-28T10:21:29;19.25;88.67
70928;SHT31;58587;53.034;18.576;2023-07-28T10:23:59;19.36;88.82
70928;SHT31;58587;53.034;18.576;2023-07-28T10:26:31;19.49;88.65
70928;SHT31;58587;53.034;18.576;2023-07-28T10:29:13;19.70;88.96
70928;SHT31;58587;53.034;18.576;2023-07-28T10:31:53;19.82;88.39
70928;SHT31;58587;53.034;18.576;2023-07-28T10:34:18;19.70;88.32
70928;SHT31;58587;53.034;18.576;2023-07-28T10:36:44;19.84;88.11
70928;SHT31;58587;53.034;18.576;2023-07-28T10:39:15;19.77;88.21
70928;SHT31;58587;53.034;18.576;2023-07-28T10:44:29;19.93;88.17
70928;SHT31;58587;53.034;18.576;2023-07-28T10:46:55;19.87;88.20
70928;SHT31;58587;53.034;18.576;2023-07-28T10:49:20;19.94;88.36
70928;SHT31;58587;53.034;18.576;2023-07-28T10:51:45;19.97;87.97
70928;SHT31;58587;53.034;18.576;2023-07-28T10:54:12;20.07;87.89
70928;SHT31;58587;53.034;18.576;2023-07-28T10:56:41;20.23;88.58
70928;SHT31;58587;53.034;18.576;2023-07-28T10:59:07;20.33;88.56
70928;SHT31;58587;53.034;18.576;2023-07-28T11:01:33;20.48;87.92
70928;SHT31;58587;53.034;18.576;2023-07-28T11:06:32;20.91;86.51
70928;SHT31;58587;53.034;18.576;2023-07-28T11:08:57;21.02;86.12
70928;SHT31;58587;53.034;18.576;2023-07-28T11:11:23;21.16;85.76
70928;SHT31;58587;53.034;18.576;2023-07-28T11:13:48;21.26;86.01
70928;SHT31;58587;53.034;18.576;2023-07-28T11:16:14;21.06;84.60
70928;SHT31;58587;53.034;18.576;2023-07-28T11:18:39;21.23;84.19
70928;SHT31;58587;53.034;18.576;2023-07-28T11:21:04;21.36;84.22
70928;SHT31;58587;53.034;18.576;2023-07-28T11:23:30;21.45;84.63
70928;SHT31;58587;53.034;18.576;2023-07-28T11:25:56;21.45;85.89
70928;SHT31;58587;53.034;18.576;2023-07-28T11:28:21;21.71;84.42
70928;SHT31;58587;53.034;18.576;2023-07-28T11:30:46;22.01;84.51
70928;SHT31;58587;53.034;18.576;2023-07-28T11:33:13;22.30;85.17
70928;SHT31;58587;53.034;18.576;2023-07-28T11:35:39;22.27;83.14
70928;SHT31;58587;53.034;18.576;2023-07-28T11:38:08;22.33;83.82
70928;SHT31;58587;53.034;18.576;2023-07-28T11:40:34;22.27;83.47
70928;SHT31;58587;53.034;18.576;2023-07-28T11:43:00;22.18;82.75
70928;SHT31;58587;53.034;18.576;2023-07-28T11:45:25;21.84;83.34
70928;SHT31;58587;53.034;18.576;2023-07-28T11:47:59;21.86;84.46
70928;SHT31;58587;53.034;18.576;2023-07-28T11:50:40;21.74;84.15
70928;SHT31;58587;53.034;18.576;2023-07-28T11:53:07;21.47;84.92
70928;SHT31;58587;53.034;18.576;2023-07-28T11:55:35;21.30;84.92
70928;SHT31;58587;53.034;18.576;2023-07-28T11:58:01;21.23;85.42
70928;SHT31;58587;53.034;18.576;2023-07-28T12:00:36;21.15;86.05
70928;SHT31;58587;53.034;18.576;2023-07-28T12:03:04;21.05;86.54
70928;SHT31;58587;53.034;18.576;2023-07-28T12:05:30;21.09;86.35
70928;SHT31;58587;53.034;18.576;2023-07-28T12:07:56;21.00;86.15
70928;SHT31;58587;53.034;18.576;2023-07-28T12:10:21;21.32;86.27
70928;SHT31;58587;53.034;18.576;2023-07-28T12:12:47;21.74;85.75
70928;SHT31;58587;53.034;18.576;2023-07-28T12:15:29;21.97;85.87
70928;SHT31;58587;53.034;18.576;2023-07-28T12:20:57;22.30;84.32
70928;SHT31;58587;53.034;18.576;2023-07-28T12:23:23;22.51;85.34
70928;SHT31;58587;53.034;18.576;2023-07-28T12:25:49;22.71;83.19
70928;SHT31;58587;53.034;18.576;2023-07-28T12:28:15;23.23;83.50
70928;SHT31;58587;53.034;18.576;2023-07-28T12:30:41;23.88;82.95
70928;SHT31;58587;53.034;18.576;2023-07-28T12:33:06;24.08;79.89
70928;SHT31;58587;53.034;18.576;2023-07-28T12:35:33;24.25;81.64
70928;SHT31;58587;53.034;18.576;2023-07-28T12:38:05;24.33;79.47
70928;SHT31;58587;53.034;18.576;2023-07-28T12:40:32;24.43;80.79
70928;SHT31;58587;53.034;18.576;2023-07-28T12:42:58;24.38;79.07
70928;SHT31;58587;53.034;18.576;2023-07-28T12:45:24;24.35;77.90
70928;SHT31;58587;53.034;18.576;2023-07-28T12:47:52;24.48;78.41
70928;SHT31;58587;53.034;18.576;2023-07-28T12:50:18;25.10;76.75
70928;SHT31;58587;53.034;18.576;2023-07-28T12:52:43;24.96;75.59
70928;SHT31;58587;53.034;18.576;2023-07-28T12:55:09;24.76;76.17
70928;SHT31;58587;53.034;18.576;2023-07-28T12:57:34;24.71;76.48
70928;SHT31;58587;53.034;18.576;2023-07-28T12:59:59;24.51;77.25
70928;SHT31;58587;53.034;18.576;2023-07-28T13:02:25;24.36;74.67
70928;SHT31;58587;53.034;18.576;2023-07-28T13:04:50;24.05;76.62
70928;SHT31;58587;53.034;18.576;2023-07-28T13:07:16;24.24;77.57
70928;SHT31;58587;53.034;18.576;2023-07-28T13:09:42;24.01;77.23
70928;SHT31;58587;53.034;18.576;2023-07-28T13:12:08;23.93;77.17
70928;SHT31;58587;53.034;18.576;2023-07-28T13:14:34;23.81;77.95
70928;SHT31;58587;53.034;18.576;2023-07-28T13:16:59;24.24;75.76
70928;SHT31;58587;53.034;18.576;2023-07-28T13:19:24;24.87;77.94
70928;SHT31;58587;53.034;18.576;2023-07-28T13:21:50;25.58;75.81
70928;SHT31;58587;53.034;18.576;2023-07-28T13:24:18;26.52;74.71
70928;SHT31;58587;53.034;18.576;2023-07-28T13:26:43;26.83;71.72
70928;SHT31;58587;53.034;18.576;2023-07-28T13:29:08;27.23;72.00
70928;SHT31;58587;53.034;18.576;2023-07-28T13:31:34;27.43;71.04
70928;SHT31;58587;53.034;18.576;2023-07-28T13:33:59;27.74;66.53
70928;SHT31;58587;53.034;18.576;2023-07-28T13:36:25;27.64;67.59
70928;SHT31;58587;53.034;18.576;2023-07-28T13:38:50;26.96;67.40
70928;SHT31;58587;53.034;18.576;2023-07-28T13:41:16;26.17;69.16
70928;SHT31;58587;53.034;18.576;2023-07-28T13:43:41;25.99;70.76
70928;SHT31;58587;53.034;18.576;2023-07-28T13:46:08;25.82;70.49
70928;SHT31;58587;53.034;18.576;2023-07-28T13:48:33;25.37;72.45
70928;SHT31;58587;53.034;18.576;2023-07-28T13:51:01;25.27;72.21
70928;SHT31;58587;53.034;18.576;2023-07-28T13:53:26;25.06;72.77
70928;SHT31;58587;53.034;18.576;2023-07-28T13:55:53;24.79;72.92
70928;SHT31;58587;53.034;18.576;2023-07-28T13:58:19;24.51;74.89
70928;SHT31;58587;53.034;18.576;2023-07-28T14:00:44;24.32;76.04
70928;SHT31;58587;53.034;18.576;2023-07-28T14:03:09;23.91;76.20
70928;SHT31;58587;53.034;18.576;2023-07-28T14:05:35;23.78;77.23
70928;SHT31;58587;53.034;18.576;2023-07-28T14:08:01;23.69;77.81
70928;SHT31;58587;53.034;18.576;2023-07-28T14:10:26;23.45;78.11
70928;SHT31;58587;53.034;18.576;2023-07-28T14:12:51;23.24;78.92
70928;SHT31;58587;53.034;18.576;2023-07-28T14:15:17;23.00;78.95
70928;SHT31;58587;53.034;18.576;2023-07-28T14:17:42;23.09;79.89
70928;SHT31;58587;53.034;18.576;2023-07-28T14:20:08;23.88;79.30
70928;SHT31;58587;53.034;18.576;2023-07-28T14:22:34;25.46;77.47
70928;SHT31;58587;53.034;18.576;2023-07-28T14:24:59;26.42;73.09
70928;SHT31;58587;53.034;18.576;2023-07-28T14:27:25;27.18;69.55
70928;SHT31;58587;53.034;18.576;2023-07-28T14:29:50;27.84;67.82
70928;SHT31;58587;53.034;18.576;2023-07-28T14:32:15;28.27;66.07
70928;SHT31;58587;53.034;18.576;2023-07-28T14:34:41;28.45;65.44
70928;SHT31;58587;53.034;18.576;2023-07-28T14:37:06;27.82;65.99
70928;SHT31;58587;53.034;18.576;2023-07-28T14:39:32;27.89;66.52
70928;SHT31;58587;53.034;18.576;2023-07-28T14:41:57;27.66;66.12
70928;SHT31;58587;53.034;18.576;2023-07-28T14:44:22;27.50;66.22
70928;SHT31;58587;53.034;18.576;2023-07-28T14:46:48;26.94;64.96
70928;SHT31;58587;53.034;18.576;2023-07-28T14:49:13;26.39;68.76
70928;SHT31;58587;53.034;18.576;2023-07-28T14:51:38;25.91;69.52
70928;SHT31;58587;53.034;18.576;2023-07-28T14:54:03;25.41;71.31
70928;SHT31;58587;53.034;18.576;2023-07-28T14:56:29;25.20;72.40
70928;SHT31;58587;53.034;18.576;2023-07-28T14:58:55;26.40;70.45
70928;SHT31;58587;53.034;18.576;2023-07-28T15:01:21;25.94;71.85
70928;SHT31;58587;53.034;18.576;2023-07-28T15:03:46;25.70;73.14
70928;SHT31;58587;53.034;18.576;2023-07-28T15:06:12;25.74;72.55
70928;SHT31;58587;53.034;18.576;2023-07-28T15:08:37;25.60;71.71
70928;SHT31;58587;53.034;18.576;2023-07-28T15:11:02;25.44;73.48
70928;SHT31;58587;53.034;18.576;2023-07-28T15:13:28;26.02;71.36
70928;SHT31;58587;53.034;18.576;2023-07-28T15:15:54;26.14;69.72
70928;SHT31;58587;53.034;18.576;2023-07-28T15:18:19;26.21;70.64
70928;SHT31;58587;53.034;18.576;2023-07-28T15:20:44;26.66;66.70
70928;SHT31;58587;53.034;18.576;2023-07-28T15:23:10;26.82;66.41
70928;SHT31;58587;53.034;18.576;2023-07-28T15:25:41;27.34;65.15
70928;SHT31;58587;53.034;18.576;2023-07-28T15:28:12;26.94;62.86
70928;SHT31;58587;53.034;18.576;2023-07-28T15:30:38;26.66;65.54
70928;SHT31;58587;53.034;18.576;2023-07-28T15:33:03;26.60;65.54
70928;SHT31;58587;53.034;18.576;2023-07-28T15:35:29;27.26;63.10
70928;SHT31;58587;53.034;18.576;2023-07-28T15:37:54;27.24;62.95
70928;SHT31;58587;53.034;18.576;2023-07-28T15:40:19;26.01;61.24
70928;SHT31;58587;53.034;18.576;2023-07-28T15:42:45;25.98;62.68
70928;SHT31;58587;53.034;18.576;2023-07-28T15:45:10;25.85;64.06
70928;SHT31;58587;53.034;18.576;2023-07-28T15:47:36;25.57;64.55
70928;SHT31;58587;53.034;18.576;2023-07-28T15:50:02;25.27;63.82
70928;SHT31;58587;53.034;18.576;2023-07-28T15:52:30;25.03;66.49
70928;SHT31;58587;53.034;18.576;2023-07-28T15:54:55;24.83;66.20
70928;SHT31;58587;53.034;18.576;2023-07-28T15:57:21;24.51;66.57
70928;SHT31;58587;53.034;18.576;2023-07-28T15:59:46;24.33;67.27
70928;SHT31;58587;53.034;18.576;2023-07-28T16:02:11;24.26;68.33
70928;SHT31;58587;53.034;18.576;2023-07-28T16:04:37;24.15;68.77
70928;SHT31;58587;53.034;18.576;2023-07-28T16:07:03;24.07;69.81
70928;SHT31;58587;53.034;18.576;2023-07-28T16:09:29;24.05;70.83
70928;SHT31;58587;53.034;18.576;2023-07-28T16:11:54;23.96;71.49
70928;SHT31;58587;53.034;18.576;2023-07-28T16:14:19;23.90;70.27
70928;SHT31;58587;53.034;18.576;2023-07-28T16:16:46;23.60;69.80
70928;SHT31;58587;53.034;18.576;2023-07-28T16:19:11;23.59;70.47
70928;SHT31;58587;53.034;18.576;2023-07-28T16:21:37;23.40;69.69
70928;SHT31;58587;53.034;18.576;2023-07-28T16:24:02;23.31;70.92
70928;SHT31;58587;53.034;18.576;2023-07-28T16:26:27;23.34;71.18
70928;SHT31;58587;53.034;18.576;2023-07-28T16:28:53;23.31;70.65
70928;SHT31;58587;53.034;18.576;2023-07-28T16:31:18;23.23;71.29
70928;SHT31;58587;53.034;18.576;2023-07-28T16:33:43;23.20;70.47
70928;SHT31;58587;53.034;18.576;2023-07-28T16:36:09;23.13;70.72
70928;SHT31;58587;53.034;18.576;2023-07-28T16:38:34;23.00;71.41
70928;SHT31;58587;53.034;18.576;2023-07-28T16:40:59;22.94;70.81
70928;SHT31;58587;53.034;18.576;2023-07-28T16:43:25;22.76;70.87
70928;SHT31;58587;53.034;18.576;2023-07-28T16:45:50;22.69;72.10
70928;SHT31;58587;53.034;18.576;2023-07-28T16:48:16;22.62;73.94
70928;SHT31;58587;53.034;18.576;2023-07-28T16:50:42;22.58;72.97
70928;SHT31;58587;53.034;18.576;2023-07-28T16:53:07;22.58;73.14
70928;SHT31;58587;53.034;18.576;2023-07-28T16:55:33;22.49;71.89
70928;SHT31;58587;53.034;18.576;2023-07-28T16:57:58;22.43;73.57
70928;SHT31;58587;53.034;18.576;2023-07-28T17:00:23;22.30;72.82
70928;SHT31;58587;53.034;18.576;2023-07-28T17:02:49;22.25;72.30
70928;SHT31;58587;53.034;18.576;2023-07-28T17:05:16;22.17;72.66
70928;SHT31;58587;53.034;18.576;2023-07-28T17:07:41;22.10;73.91
70928;SHT31;58587;53.034;18.576;2023-07-28T17:10:08;22.00;75.64
70928;SHT31;58587;53.034;18.576;2023-07-28T17:12:33;21.97;73.88
70928;SHT31;58587;53.034;18.576;2023-07-28T17:14:59;21.96;73.45
70928;SHT31;58587;53.034;18.576;2023-07-28T17:17:24;21.91;73.24
70928;SHT31;58587;53.034;18.576;2023-07-28T17:19:49;21.81;73.63
70928;SHT31;58587;53.034;18.576;2023-07-28T17:22:15;21.73;73.90
70928;SHT31;58587;53.034;18.576;2023-07-28T17:24:40;21.62;73.13
70928;SHT31;58587;53.034;18.576;2023-07-28T17:27:05;21.53;74.51
70928;SHT31;58587;53.034;18.576;2023-07-28T17:29:31;21.45;74.42
70928;SHT31;58587;53.034;18.576;2023-07-28T17:31:56;21.40;74.77
70928;SHT31;58587;53.034;18.576;2023-07-28T17:34:21;21.39;75.34
70928;SHT31;58587;53.034;18.576;2023-07-28T17:36:47;21.33;75.21
70928;SHT31;58587;53.034;18.576;2023-07-28T17:39:12;21.33;75.22
70928;SHT31;58587;53.034;18.576;2023-07-28T17:41:37;21.20;74.58
70928;SHT31;58587;53.034;18.576;2023-07-28T17:44:03;21.23;75.38
70928;SHT31;58587;53.034;18.576;2023-07-28T17:46:28;21.13;74.17
70928;SHT31;58587;53.034;18.576;2023-07-28T17:48:53;21.08;74.94
70928;SHT31;58587;53.034;18.576;2023-07-28T17:51:19;20.99;77.03
70928;SHT31;58587;53.034;18.576;2023-07-28T17:53:44;20.94;76.67
70928;SHT31;58587;53.034;18.576;2023-07-28T17:56:09;20.85;76.51
70928;SHT31;58587;53.034;18.576;2023-07-28T17:58:35;20.79;75.91
70928;SHT31;58587;53.034;18.576;2023-07-28T18:01:00;20.75;76.31
70928;SHT31;58587;53.034;18.576;2023-07-28T18:03:25;20.69;77.23
70928;SHT31;58587;53.034;18.576;2023-07-28T18:05:52;20.59;77.19
70928;SHT31;58587;53.034;18.576;2023-07-28T18:08:18;20.52;77.57
70928;SHT31;58587;53.034;18.576;2023-07-28T18:10:43;20.48;78.40
70928;SHT31;58587;53.034;18.576;2023-07-28T18:13:09;20.40;78.70
70928;SHT31;58587;53.034;18.576;2023-07-28T18:15:34;20.30;79.83
70928;SHT31;58587;53.034;18.576;2023-07-28T18:18:00;20.24;80.49
70928;SHT31;58587;53.034;18.576;2023-07-28T18:20:26;20.10;81.51